sensor_id;sensor_type;location;lat;lon;timestamp;P1;durP1;ratioP1;P2;durP2;ratioP2
16407;SDS011;8313;49.894;8.084;2023-04-19T00:01:37;4.67;;;4.07;;
16407;SDS011;8313;49.894;8.084;2023-04-19T00:04:03;8.20;;;5.03;;
16407;SDS011;8313;49.894;8.084;2023-04-19T00:06:29;6.90;;;5.20;;
16407;SDS011;8313;49.894;8.084;2023-04-19T00:08:56;6.43;;;5.10;;
16407;SDS011;8313;49.894;8.084;2023-04-19T00:11:22;7.67;;;5.33;;
16407;SDS011;8313;49.894;8.084;2023-04-19T00:13:48;6.07;;;5.00;;
16407;SDS011;8313;49.894;8.084;2023-04-19T00:16:14;6.20;;;5.27;;
16407;SDS011;8313;49.894;8.084;2023-04-19T00:18:40;6.17;;;4.53;;
16407;SDS011;8313;49.894;8.084;2023-04-19T00:21:07;6.20;;;4.73;;
16407;SDS011;8313;49.894;8.084;2023-04-19T00:23:33;5.03;;;4.53;;
16407;SDS011;8313;49.894;8.084;2023-04-19T00:26:01;7.27;;;5.10;;
16407;SDS011;8313;49.894;8.084;2023-04-19T00:28:28;6.73;;;4.97;;
16407;SDS011;8313;49.894;8.084;2023-04-19T00:30:53;5.60;;;4.60;;
16407;SDS011;8313;49.894;8.084;2023-04-19T00:33:19;7.80;;;5.17;;
16407;SDS011;8313;49.894;8.084;2023-04-19T00:35:45;7.30;;;5.40;;
16407;SDS011;8313;49.894;8.084;2023-04-19T00:38:11;5.03;;;4.33;;
16407;SDS011;8313;49.894;8.084;2023-04-19T00:40:37;4.73;;;4.23;;
16407;SDS011;8313;49.894;8.084;2023-04-19T00:43:03;7.00;;;4.13;;
16407;SDS011;8313;49.894;8.084;2023-04-19T00:45:29;6.10;;;4.77;;
16407;SDS011;8313;49.894;8.084;2023-04-19T00:47:57;6.40;;;5.10;;
16407;SDS011;8313;49.894;8.084;2023-04-19T00:50:23;7.67;;;5.50;;
16407;SDS011;8313;49.894;8.084;2023-04-19T00:52:49;5.30;;;4.00;;
16407;SDS011;8313;49.894;8.084;2023-04-19T00:55:17;6.60;;;5.00;;
16407;SDS011;8313;49.894;8.084;2023-04-19T00:57:43;6.20;;;4.50;;
16407;SDS011;8313;49.894;8.084;2023-04-19T01:00:10;9.43;;;5.10;;
16407;SDS011;8313;49.894;8.084;2023-04-19T01:02:36;6.03;;;4.13;;
16407;SDS011;8313;49.894;8.084;2023-04-19T01:05:02;7.33;;;5.20;;
16407;SDS011;8313;49.894;8.084;2023-04-19T01:07:28;5.80;;;4.30;;
16407;SDS011;8313;49.894;8.084;2023-04-19T01:09:54;5.77;;;4.57;;
16407;SDS011;8313;49.894;8.084;2023-04-19T01:12:20;5.60;;;4.50;;
16407;SDS011;8313;49.894;8.084;2023-04-19T01:14:47;6.57;;;4.93;;
16407;SDS011;8313;49.894;8.084;2023-04-19T01:17:12;7.63;;;4.40;;
16407;SDS011;8313;49.894;8.084;2023-04-19T01:19:38;5.43;;;4.20;;
16407;SDS011;8313;49.894;8.084;2023-04-19T01:22:04;6.53;;;4.53;;
16407;SDS011;8313;49.894;8.084;2023-04-19T01:24:30;6.87;;;6.13;;
16407;SDS011;8313;49.894;8.084;2023-04-19T01:26:57;7.10;;;4.53;;
16407;SDS011;8313;49.894;8.084;2023-04-19T01:29:23;4.43;;;3.97;;
16407;SDS011;8313;49.894;8.084;2023-04-19T01:31:48;6.93;;;4.23;;
16407;SDS011;8313;49.894;8.084;2023-04-19T01:34:20;5.40;;;4.00;;
16407;SDS011;8313;49.894;8.084;2023-04-19T01:36:49;6.63;;;4.80;;
16407;SDS011;8313;49.894;8.084;2023-04-19T01:39:15;4.63;;;3.73;;
16407;SDS011;8313;49.894;8.084;2023-04-19T01:41:41;3.80;;;3.50;;
16407;SDS011;8313;49.894;8.084;2023-04-19T01:44:08;6.07;;;4.10;;
16407;SDS011;8313;49.894;8.084;2023-04-19T01:46:33;7.97;;;5.07;;
16407;SDS011;8313;49.894;8.084;2023-04-19T01:49:00;6.47;;;4.87;;
16407;SDS011;8313;49.894;8.084;2023-04-19T01:51:26;5.67;;;4.60;;
16407;SDS011;8313;49.894;8.084;2023-04-19T01:53:52;5.40;;;4.70;;
16407;SDS011;8313;49.894;8.084;2023-04-19T01:56:19;6.13;;;5.37;;
16407;SDS011;8313;49.894;8.084;2023-04-19T01:58:45;7.20;;;5.30;;
16407;SDS011;8313;49.894;8.084;2023-04-19T02:01:11;4.63;;;4.23;;
16407;SDS011;8313;49.894;8.084;2023-04-19T02:03:37;7.87;;;5.80;;
16407;SDS011;8313;49.894;8.084;2023-04-19T02:06:03;7.07;;;4.87;;
16407;SDS011;8313;49.894;8.084;2023-04-19T02:08:29;4.87;;;4.37;;
16407;SDS011;8313;49.894;8.084;2023-04-19T02:10:56;7.70;;;5.23;;
16407;SDS011;8313;49.894;8.084;2023-04-19T02:13:21;7.23;;;4.90;;
16407;SDS011;8313;49.894;8.084;2023-04-19T02:15:47;5.57;;;4.73;;
16407;SDS011;8313;49.894;8.084;2023-04-19T02:18:13;6.93;;;5.40;;
16407;SDS011;8313;49.894;8.084;2023-04-19T02:20:39;7.30;;;5.10;;
16407;SDS011;8313;49.894;8.084;2023-04-19T02:23:04;8.60;;;5.57;;
16407;SDS011;8313;49.894;8.084;2023-04-19T02:25:30;7.27;;;5.70;;
16407;SDS011;8313;49.894;8.084;2023-04-19T02:27:56;9.10;;;5.60;;
16407;SDS011;8313;49.894;8.084;2023-04-19T02:30:21;8.07;;;5.73;;
16407;SDS011;8313;49.894;8.084;2023-04-19T02:32:48;7.30;;;5.40;;
16407;SDS011;8313;49.894;8.084;2023-04-19T02:35:14;6.90;;;5.07;;
16407;SDS011;8313;49.894;8.084;2023-04-19T02:37:41;7.67;;;5.70;;
16407;SDS011;8313;49.894;8.084;2023-04-19T02:40:07;7.10;;;5.50;;
16407;SDS011;8313;49.894;8.084;2023-04-19T02:42:33;7.63;;;5.83;;
16407;SDS011;8313;49.894;8.084;2023-04-19T02:44:58;8.97;;;6.17;;
16407;SDS011;8313;49.894;8.084;2023-04-19T02:47:24;8.07;;;5.63;;
16407;SDS011;8313;49.894;8.084;2023-04-19T02:49:50;8.50;;;6.03;;
16407;SDS011;8313;49.894;8.084;2023-04-19T02:52:16;8.60;;;5.87;;
16407;SDS011;8313;49.894;8.084;2023-04-19T02:54:42;6.50;;;5.30;;
16407;SDS011;8313;49.894;8.084;2023-04-19T02:57:08;7.57;;;5.90;;
16407;SDS011;8313;49.894;8.084;2023-04-19T02:59:34;7.30;;;5.57;;
16407;SDS011;8313;49.894;8.084;2023-04-19T03:02:02;10.77;;;6.10;;
16407;SDS011;8313;49.894;8.084;2023-04-19T03:04:27;8.70;;;5.90;;
16407;SDS011;8313;49.894;8.084;2023-04-19T03:06:53;9.17;;;5.70;;
16407;SDS011;8313;49.894;8.084;2023-04-19T03:09:19;10.30;;;5.60;;
16407;SDS011;8313;49.894;8.084;2023-04-19T03:11:45;7.60;;;6.37;;
16407;SDS011;8313;49.894;8.084;2023-04-19T03:14:11;8.73;;;6.60;;
16407;SDS011;8313;49.894;8.084;2023-04-19T03:16:37;11.77;;;5.93;;
16407;SDS011;8313;49.894;8.084;2023-04-19T03:19:02;9.97;;;6.80;;
16407;SDS011;8313;49.894;8.084;2023-04-19T03:21:34;8.40;;;6.00;;
16407;SDS011;8313;49.894;8.084;2023-04-19T03:24:00;9.17;;;5.97;;
16407;SDS011;8313;49.894;8.084;2023-04-19T03:26:26;8.23;;;5.93;;
16407;SDS011;8313;49.894;8.084;2023-04-19T03:28:54;6.60;;;5.30;;
16407;SDS011;8313;49.894;8.084;2023-04-19T03:31:38;7.10;;;5.63;;
16407;SDS011;8313;49.894;8.084;2023-04-19T03:34:05;9.37;;;6.77;;
16407;SDS011;8313;49.894;8.084;2023-04-19T03:36:38;8.97;;;6.90;;
16407;SDS011;8313;49.894;8.084;2023-04-19T03:39:04;7.50;;;6.00;;
16407;SDS011;8313;49.894;8.084;2023-04-19T03:41:30;9.87;;;6.27;;
16407;SDS011;8313;49.894;8.084;2023-04-19T03:44:19;7.97;;;6.00;;
16407;SDS011;8313;49.894;8.084;2023-04-19T03:46:45;7.77;;;6.00;;
16407;SDS011;8313;49.894;8.084;2023-04-19T03:49:15;7.60;;;6.20;;
16407;SDS011;8313;49.894;8.084;2023-04-19T03:51:44;9.37;;;6.03;;
16407;SDS011;8313;49.894;8.084;2023-04-19T03:54:10;9.57;;;6.43;;
16407;SDS011;8313;49.894;8.084;2023-04-19T03:56:36;9.77;;;6.00;;
16407;SDS011;8313;49.894;8.084;2023-04-19T03:59:02;7.50;;;5.80;;
16407;SDS011;8313;49.894;8.084;2023-04-19T04:01:31;7.30;;;6.00;;
16407;SDS011;8313;49.894;8.084;2023-04-19T04:03:57;7.23;;;5.70;;
16407;SDS011;8313;49.894;8.084;2023-04-19T04:06:23;8.10;;;5.80;;
16407;SDS011;8313;49.894;8.084;2023-04-19T04:08:49;7.90;;;6.03;;
16407;SDS011;8313;49.894;8.084;2023-04-19T04:11:14;8.37;;;5.93;;
16407;SDS011;8313;49.894;8.084;2023-04-19T04:13:41;9.90;;;6.50;;
16407;SDS011;8313;49.894;8.084;2023-04-19T04:16:14;7.77;;;6.17;;
16407;SDS011;8313;49.894;8.084;2023-04-19T04:18:40;9.70;;;6.10;;
16407;SDS011;8313;49.894;8.084;2023-04-19T04:21:09;9.40;;;6.60;;
16407;SDS011;8313;49.894;8.084;2023-04-19T04:23:37;9.17;;;6.43;;
16407;SDS011;8313;49.894;8.084;2023-04-19T04:26:07;10.87;;;7.40;;
16407;SDS011;8313;49.894;8.084;2023-04-19T04:28:53;8.30;;;5.90;;
16407;SDS011;8313;49.894;8.084;2023-04-19T04:31:19;7.83;;;5.80;;
16407;SDS011;8313;49.894;8.084;2023-04-19T04:33:45;8.80;;;6.40;;
16407;SDS011;8313;49.894;8.084;2023-04-19T04:36:12;10.50;;;7.10;;
16407;SDS011;8313;49.894;8.084;2023-04-19T04:38:39;8.70;;;5.70;;
16407;SDS011;8313;49.894;8.084;2023-04-19T04:41:05;8.73;;;6.50;;
16407;SDS011;8313;49.894;8.084;2023-04-19T04:43:31;8.90;;;6.43;;
16407;SDS011;8313;49.894;8.084;2023-04-19T04:45:58;8.13;;;5.93;;
16407;SDS011;8313;49.894;8.084;2023-04-19T04:48:29;9.27;;;6.50;;
16407;SDS011;8313;49.894;8.084;2023-04-19T04:50:56;9.43;;;6.43;;
16407;SDS011;8313;49.894;8.084;2023-04-19T04:53:25;8.10;;;5.37;;
16407;SDS011;8313;49.894;8.084;2023-04-19T04:55:52;10.50;;;6.33;;
16407;SDS011;8313;49.894;8.084;2023-04-19T04:58:18;10.60;;;6.93;;
16407;SDS011;8313;49.894;8.084;2023-04-19T05:00:53;8.83;;;5.87;;
16407;SDS011;8313;49.894;8.084;2023-04-19T05:03:19;9.20;;;6.33;;
16407;SDS011;8313;49.894;8.084;2023-04-19T05:05:51;6.43;;;5.60;;
16407;SDS011;8313;49.894;8.084;2023-04-19T05:08:16;10.03;;;6.07;;
16407;SDS011;8313;49.894;8.084;2023-04-19T05:10:43;10.90;;;6.80;;
16407;SDS011;8313;49.894;8.084;2023-04-19T05:13:11;7.90;;;5.63;;
16407;SDS011;8313;49.894;8.084;2023-04-19T05:15:38;9.77;;;6.20;;
16407;SDS011;8313;49.894;8.084;2023-04-19T05:18:04;9.10;;;5.93;;
16407;SDS011;8313;49.894;8.084;2023-04-19T05:20:30;11.00;;;6.30;;
16407;SDS011;8313;49.894;8.084;2023-04-19T05:23:08;6.80;;;5.87;;
16407;SDS011;8313;49.894;8.084;2023-04-19T05:25:35;11.07;;;7.70;;
16407;SDS011;8313;49.894;8.084;2023-04-19T05:28:02;6.33;;;5.50;;
16407;SDS011;8313;49.894;8.084;2023-04-19T05:30:35;8.67;;;5.90;;
16407;SDS011;8313;49.894;8.084;2023-04-19T05:33:01;14.47;;;6.63;;
16407;SDS011;8313;49.894;8.084;2023-04-19T05:35:27;9.67;;;6.90;;
16407;SDS011;8313;49.894;8.084;2023-04-19T05:37:53;8.43;;;6.13;;
16407;SDS011;8313;49.894;8.084;2023-04-19T05:40:19;11.03;;;6.80;;
16407;SDS011;8313;49.894;8.084;2023-04-19T05:42:46;10.40;;;7.20;;
16407;SDS011;8313;49.894;8.084;2023-04-19T05:45:12;6.53;;;5.40;;
16407;SDS011;8313;49.894;8.084;2023-04-19T05:47:39;10.07;;;7.00;;
16407;SDS011;8313;49.894;8.084;2023-04-19T05:50:23;13.70;;;6.90;;
16407;SDS011;8313;49.894;8.084;2023-04-19T05:53:12;10.60;;;6.27;;
16407;SDS011;8313;49.894;8.084;2023-04-19T05:55:38;11.13;;;6.67;;
16407;SDS011;8313;49.894;8.084;2023-04-19T05:58:03;10.20;;;7.03;;
16407;SDS011;8313;49.894;8.084;2023-04-19T06:00:29;10.43;;;7.47;;
16407;SDS011;8313;49.894;8.084;2023-04-19T06:03:03;10.23;;;7.17;;
16407;SDS011;8313;49.894;8.084;2023-04-19T06:05:29;11.07;;;7.40;;
16407;SDS011;8313;49.894;8.084;2023-04-19T06:07:55;13.27;;;8.00;;
16407;SDS011;8313;49.894;8.084;2023-04-19T06:10:21;9.40;;;7.20;;
16407;SDS011;8313;49.894;8.084;2023-04-19T06:12:47;10.00;;;7.17;;
16407;SDS011;8313;49.894;8.084;2023-04-19T06:15:13;12.30;;;7.90;;
16407;SDS011;8313;49.894;8.084;2023-04-19T06:17:39;9.20;;;6.87;;
16407;SDS011;8313;49.894;8.084;2023-04-19T06:20:05;9.93;;;7.27;;
16407;SDS011;8313;49.894;8.084;2023-04-19T06:22:32;9.17;;;7.37;;
16407;SDS011;8313;49.894;8.084;2023-04-19T06:24:58;12.07;;;7.57;;
16407;SDS011;8313;49.894;8.084;2023-04-19T06:27:24;11.03;;;7.43;;
16407;SDS011;8313;49.894;8.084;2023-04-19T06:29:51;13.10;;;7.83;;
16407;SDS011;8313;49.894;8.084;2023-04-19T06:32:16;12.80;;;8.27;;
16407;SDS011;8313;49.894;8.084;2023-04-19T06:34:42;11.00;;;8.17;;
16407;SDS011;8313;49.894;8.084;2023-04-19T06:37:08;10.80;;;8.07;;
16407;SDS011;8313;49.894;8.084;2023-04-19T06:39:33;13.07;;;8.43;;
16407;SDS011;8313;49.894;8.084;2023-04-19T06:41:59;12.53;;;8.00;;
16407;SDS011;8313;49.894;8.084;2023-04-19T06:44:27;10.17;;;7.30;;
16407;SDS011;8313;49.894;8.084;2023-04-19T06:46:52;10.87;;;8.00;;
16407;SDS011;8313;49.894;8.084;2023-04-19T06:49:18;10.33;;;7.10;;
16407;SDS011;8313;49.894;8.084;2023-04-19T06:51:44;7.93;;;7.03;;
16407;SDS011;8313;49.894;8.084;2023-04-19T06:54:09;11.73;;;8.53;;
16407;SDS011;8313;49.894;8.084;2023-04-19T06:56:38;10.93;;;8.07;;
16407;SDS011;8313;49.894;8.084;2023-04-19T06:59:06;12.07;;;8.53;;
16407;SDS011;8313;49.894;8.084;2023-04-19T07:01:32;9.83;;;7.03;;
16407;SDS011;8313;49.894;8.084;2023-04-19T07:03:57;8.97;;;6.30;;
16407;SDS011;8313;49.894;8.084;2023-04-19T07:06:23;12.50;;;8.30;;
16407;SDS011;8313;49.894;8.084;2023-04-19T07:08:48;13.10;;;8.27;;
16407;SDS011;8313;49.894;8.084;2023-04-19T07:11:14;15.30;;;9.60;;
16407;SDS011;8313;49.894;8.084;2023-04-19T07:13:40;11.27;;;7.60;;
16407;SDS011;8313;49.894;8.084;2023-04-19T07:16:05;9.43;;;7.13;;
16407;SDS011;8313;49.894;8.084;2023-04-19T07:18:32;14.00;;;8.23;;
16407;SDS011;8313;49.894;8.084;2023-04-19T07:20:57;10.90;;;7.77;;
16407;SDS011;8313;49.894;8.084;2023-04-19T07:23:23;10.90;;;7.60;;
16407;SDS011;8313;49.894;8.084;2023-04-19T07:25:49;10.87;;;7.97;;
16407;SDS011;8313;49.894;8.084;2023-04-19T07:28:14;12.13;;;8.00;;
16407;SDS011;8313;49.894;8.084;2023-04-19T07:30:40;10.50;;;7.27;;
16407;SDS011;8313;49.894;8.084;2023-04-19T07:33:06;8.80;;;6.90;;
16407;SDS011;8313;49.894;8.084;2023-04-19T07:35:32;10.33;;;7.33;;
16407;SDS011;8313;49.894;8.084;2023-04-19T07:37:59;10.40;;;7.90;;
16407;SDS011;8313;49.894;8.084;2023-04-19T07:40:25;8.90;;;6.67;;
16407;SDS011;8313;49.894;8.084;2023-04-19T07:42:53;10.50;;;7.03;;
16407;SDS011;8313;49.894;8.084;2023-04-19T07:45:19;10.23;;;7.33;;
16407;SDS011;8313;49.894;8.084;2023-04-19T07:47:45;9.30;;;6.43;;
16407;SDS011;8313;49.894;8.084;2023-04-19T07:50:11;8.17;;;6.10;;
16407;SDS011;8313;49.894;8.084;2023-04-19T07:52:36;10.80;;;6.50;;
16407;SDS011;8313;49.894;8.084;2023-04-19T07:55:02;12.10;;;6.93;;
16407;SDS011;8313;49.894;8.084;2023-04-19T07:57:28;10.37;;;6.40;;
16407;SDS011;8313;49.894;8.084;2023-04-19T07:59:54;9.30;;;6.30;;
16407;SDS011;8313;49.894;8.084;2023-04-19T08:02:22;11.90;;;8.07;;
16407;SDS011;8313;49.894;8.084;2023-04-19T08:04:49;9.03;;;6.23;;
16407;SDS011;8313;49.894;8.084;2023-04-19T08:07:15;8.37;;;6.20;;
16407;SDS011;8313;49.894;8.084;2023-04-19T08:09:41;8.23;;;5.17;;
16407;SDS011;8313;49.894;8.084;2023-04-19T08:12:07;7.00;;;5.33;;
16407;SDS011;8313;49.894;8.084;2023-04-19T08:14:33;7.90;;;5.80;;
16407;SDS011;8313;49.894;8.084;2023-04-19T08:16:59;12.27;;;5.80;;
16407;SDS011;8313;49.894;8.084;2023-04-19T08:19:24;8.97;;;5.67;;
16407;SDS011;8313;49.894;8.084;2023-04-19T08:21:50;7.80;;;5.47;;
16407;SDS011;8313;49.894;8.084;2023-04-19T08:24:15;6.57;;;5.07;;
16407;SDS011;8313;49.894;8.084;2023-04-19T08:26:41;9.30;;;5.17;;
16407;SDS011;8313;49.894;8.084;2023-04-19T08:29:07;10.60;;;6.00;;
16407;SDS011;8313;49.894;8.084;2023-04-19T08:31:32;5.20;;;4.67;;
16407;SDS011;8313;49.894;8.084;2023-04-19T08:33:58;6.33;;;5.00;;
16407;SDS011;8313;49.894;8.084;2023-04-19T08:36:24;5.43;;;4.00;;
16407;SDS011;8313;49.894;8.084;2023-04-19T08:38:51;8.17;;;5.80;;
16407;SDS011;8313;49.894;8.084;2023-04-19T08:41:17;7.20;;;4.90;;
16407;SDS011;8313;49.894;8.084;2023-04-19T08:43:44;7.53;;;5.40;;
16407;SDS011;8313;49.894;8.084;2023-04-19T08:46:14;7.00;;;4.03;;
16407;SDS011;8313;49.894;8.084;2023-04-19T08:48:41;10.67;;;6.30;;
16407;SDS011;8313;49.894;8.084;2023-04-19T08:51:08;7.70;;;4.97;;
16407;SDS011;8313;49.894;8.084;2023-04-19T08:53:36;7.97;;;5.20;;
16407;SDS011;8313;49.894;8.084;2023-04-19T08:56:03;5.10;;;4.60;;
16407;SDS011;8313;49.894;8.084;2023-04-19T08:58:31;5.33;;;4.60;;
16407;SDS011;8313;49.894;8.084;2023-04-19T09:00:57;4.60;;;3.87;;
16407;SDS011;8313;49.894;8.084;2023-04-19T09:03:23;6.80;;;5.30;;
16407;SDS011;8313;49.894;8.084;2023-04-19T09:05:49;6.87;;;4.20;;
16407;SDS011;8313;49.894;8.084;2023-04-19T09:13:20;5.27;;;4.33;;
16407;SDS011;8313;49.894;8.084;2023-04-19T09:15:45;5.40;;;4.77;;
16407;SDS011;8313;49.894;8.084;2023-04-19T09:18:11;7.63;;;5.03;;
16407;SDS011;8313;49.894;8.084;2023-04-19T09:20:39;6.40;;;4.40;;
16407;SDS011;8313;49.894;8.084;2023-04-19T09:23:08;9.37;;;4.60;;
16407;SDS011;8313;49.894;8.084;2023-04-19T09:25:50;9.20;;;4.80;;
16407;SDS011;8313;49.894;8.084;2023-04-19T09:28:25;5.80;;;4.63;;
16407;SDS011;8313;49.894;8.084;2023-04-19T09:30:51;5.80;;;3.87;;
16407;SDS011;8313;49.894;8.084;2023-04-19T09:35:59;8.10;;;5.20;;
16407;SDS011;8313;49.894;8.084;2023-04-19T09:38:25;6.70;;;4.60;;
16407;SDS011;8313;49.894;8.084;2023-04-19T09:40:51;10.53;;;4.80;;
16407;SDS011;8313;49.894;8.084;2023-04-19T09:43:23;9.83;;;4.80;;
16407;SDS011;8313;49.894;8.084;2023-04-19T09:45:49;4.90;;;4.20;;
16407;SDS011;8313;49.894;8.084;2023-04-19T09:48:15;6.63;;;4.37;;
16407;SDS011;8313;49.894;8.084;2023-04-19T09:50:51;5.60;;;4.63;;
16407;SDS011;8313;49.894;8.084;2023-04-19T09:53:18;4.93;;;3.60;;
16407;SDS011;8313;49.894;8.084;2023-04-19T09:55:45;4.90;;;4.33;;
16407;SDS011;8313;49.894;8.084;2023-04-19T09:58:17;5.10;;;4.00;;
16407;SDS011;8313;49.894;8.084;2023-04-19T10:00:46;5.10;;;4.60;;
16407;SDS011;8313;49.894;8.084;2023-04-19T10:03:13;5.27;;;3.83;;
16407;SDS011;8313;49.894;8.084;2023-04-19T10:05:40;6.77;;;3.90;;
16407;SDS011;8313;49.894;8.084;2023-04-19T10:08:07;5.27;;;4.07;;
16407;SDS011;8313;49.894;8.084;2023-04-19T10:10:33;5.60;;;4.20;;
16407;SDS011;8313;49.894;8.084;2023-04-19T10:13:01;4.43;;;3.80;;
16407;SDS011;8313;49.894;8.084;2023-04-19T10:15:29;5.33;;;4.10;;
16407;SDS011;8313;49.894;8.084;2023-04-19T10:17:56;5.93;;;3.93;;
16407;SDS011;8313;49.894;8.084;2023-04-19T10:20:23;4.67;;;4.00;;
16407;SDS011;8313;49.894;8.084;2023-04-19T10:22:54;4.33;;;3.40;;
16407;SDS011;8313;49.894;8.084;2023-04-19T10:25:26;4.07;;;3.60;;
16407;SDS011;8313;49.894;8.084;2023-04-19T10:27:54;4.03;;;3.63;;
16407;SDS011;8313;49.894;8.084;2023-04-19T10:30:21;3.40;;;3.10;;
16407;SDS011;8313;49.894;8.084;2023-04-19T10:32:57;4.30;;;3.90;;
16407;SDS011;8313;49.894;8.084;2023-04-19T10:35:25;6.60;;;4.07;;
16407;SDS011;8313;49.894;8.084;2023-04-19T10:38:02;4.27;;;3.87;;
16407;SDS011;8313;49.894;8.084;2023-04-19T10:40:55;6.10;;;3.90;;
16407;SDS011;8313;49.894;8.084;2023-04-19T10:45:48;4.60;;;4.00;;
16407;SDS011;8313;49.894;8.084;2023-04-19T10:48:36;7.00;;;4.00;;
16407;SDS011;8313;49.894;8.084;2023-04-19T10:56:20;5.43;;;4.00;;
16407;SDS011;8313;49.894;8.084;2023-04-19T11:04:01;5.90;;;3.60;;
16407;SDS011;8313;49.894;8.084;2023-04-19T11:06:26;7.50;;;4.33;;
16407;SDS011;8313;49.894;8.084;2023-04-19T11:08:52;5.87;;;4.33;;
16407;SDS011;8313;49.894;8.084;2023-04-19T11:11:19;4.87;;;3.60;;
16407;SDS011;8313;49.894;8.084;2023-04-19T11:13:49;4.47;;;3.40;;
16407;SDS011;8313;49.894;8.084;2023-04-19T11:16:15;4.20;;;3.40;;
16407;SDS011;8313;49.894;8.084;2023-04-19T11:18:41;3.93;;;3.57;;
16407;SDS011;8313;49.894;8.084;2023-04-19T11:21:11;6.07;;;4.23;;
16407;SDS011;8313;49.894;8.084;2023-04-19T11:23:42;5.97;;;4.50;;
16407;SDS011;8313;49.894;8.084;2023-04-19T11:26:11;6.30;;;4.87;;
16407;SDS011;8313;49.894;8.084;2023-04-19T11:28:37;4.97;;;3.87;;
16407;SDS011;8313;49.894;8.084;2023-04-19T11:31:03;6.60;;;4.07;;
16407;SDS011;8313;49.894;8.084;2023-04-19T11:33:33;5.17;;;4.17;;
16407;SDS011;8313;49.894;8.084;2023-04-19T11:35:59;5.37;;;4.50;;
16407;SDS011;8313;49.894;8.084;2023-04-19T11:38:28;3.70;;;3.13;;
16407;SDS011;8313;49.894;8.084;2023-04-19T11:41:01;4.47;;;3.40;;
16407;SDS011;8313;49.894;8.084;2023-04-19T11:43:31;4.30;;;3.47;;
16407;SDS011;8313;49.894;8.084;2023-04-19T11:46:18;4.40;;;3.77;;
16407;SDS011;8313;49.894;8.084;2023-04-19T11:48:50;5.27;;;4.30;;
16407;SDS011;8313;49.894;8.084;2023-04-19T11:51:17;4.90;;;3.77;;
16407;SDS011;8313;49.894;8.084;2023-04-19T11:53:42;4.47;;;3.20;;
16407;SDS011;8313;49.894;8.084;2023-04-19T11:56:08;4.97;;;3.70;;
16407;SDS011;8313;49.894;8.084;2023-04-19T12:03:31;4.27;;;3.07;;
16407;SDS011;8313;49.894;8.084;2023-04-19T12:06:01;5.00;;;3.37;;
16407;SDS011;8313;49.894;8.084;2023-04-19T12:08:53;3.90;;;3.27;;
16407;SDS011;8313;49.894;8.084;2023-04-19T12:11:20;4.23;;;3.10;;
16407;SDS011;8313;49.894;8.084;2023-04-19T12:13:55;5.03;;;3.33;;
16407;SDS011;8313;49.894;8.084;2023-04-19T12:16:43;6.00;;;4.30;;
16407;SDS011;8313;49.894;8.084;2023-04-19T12:19:10;4.37;;;3.70;;
16407;SDS011;8313;49.894;8.084;2023-04-19T12:21:41;4.30;;;3.90;;
16407;SDS011;8313;49.894;8.084;2023-04-19T12:24:07;4.77;;;4.20;;
16407;SDS011;8313;49.894;8.084;2023-04-19T12:26:33;4.97;;;3.57;;
16407;SDS011;8313;49.894;8.084;2023-04-19T12:29:00;7.63;;;3.80;;
16407;SDS011;8313;49.894;8.084;2023-04-19T12:31:27;4.40;;;3.10;;
16407;SDS011;8313;49.894;8.084;2023-04-19T12:33:56;4.67;;;3.40;;
16407;SDS011;8313;49.894;8.084;2023-04-19T12:36:21;4.40;;;4.00;;
16407;SDS011;8313;49.894;8.084;2023-04-19T12:38:47;3.00;;;2.70;;
16407;SDS011;8313;49.894;8.084;2023-04-19T12:41:13;4.20;;;2.97;;
16407;SDS011;8313;49.894;8.084;2023-04-19T12:43:38;3.73;;;2.63;;
16407;SDS011;8313;49.894;8.084;2023-04-19T12:46:04;4.50;;;3.10;;
16407;SDS011;8313;49.894;8.084;2023-04-19T12:48:30;5.70;;;3.00;;
16407;SDS011;8313;49.894;8.084;2023-04-19T12:50:55;3.00;;;2.70;;
16407;SDS011;8313;49.894;8.084;2023-04-19T12:53:21;3.00;;;2.50;;
16407;SDS011;8313;49.894;8.084;2023-04-19T12:55:48;3.00;;;2.73;;
16407;SDS011;8313;49.894;8.084;2023-04-19T12:58:14;3.80;;;3.00;;
16407;SDS011;8313;49.894;8.084;2023-04-19T13:00:43;3.00;;;2.70;;
16407;SDS011;8313;49.894;8.084;2023-04-19T13:03:09;3.90;;;2.70;;
16407;SDS011;8313;49.894;8.084;2023-04-19T13:05:36;4.83;;;2.63;;
16407;SDS011;8313;49.894;8.084;2023-04-19T13:08:02;2.80;;;2.60;;
16407;SDS011;8313;49.894;8.084;2023-04-19T13:10:28;3.03;;;2.73;;
16407;SDS011;8313;49.894;8.084;2023-04-19T13:12:53;3.60;;;2.67;;
16407;SDS011;8313;49.894;8.084;2023-04-19T13:15:20;3.50;;;2.50;;
16407;SDS011;8313;49.894;8.084;2023-04-19T13:17:46;2.97;;;2.73;;
16407;SDS011;8313;49.894;8.084;2023-04-19T13:20:11;4.00;;;3.10;;
16407;SDS011;8313;49.894;8.084;2023-04-19T13:22:37;3.13;;;2.83;;
16407;SDS011;8313;49.894;8.084;2023-04-19T13:25:03;2.80;;;2.50;;
16407;SDS011;8313;49.894;8.084;2023-04-19T13:27:28;3.13;;;2.40;;
16407;SDS011;8313;49.894;8.084;2023-04-19T13:29:54;3.57;;;3.20;;
16407;SDS011;8313;49.894;8.084;2023-04-19T13:32:20;5.60;;;2.70;;
16407;SDS011;8313;49.894;8.084;2023-04-19T13:34:46;2.60;;;2.40;;
16407;SDS011;8313;49.894;8.084;2023-04-19T13:37:12;3.80;;;2.50;;
16407;SDS011;8313;49.894;8.084;2023-04-19T13:39:38;3.80;;;2.60;;
16407;SDS011;8313;49.894;8.084;2023-04-19T13:42:04;2.60;;;2.20;;
16407;SDS011;8313;49.894;8.084;2023-04-19T13:44:30;3.13;;;2.30;;
16407;SDS011;8313;49.894;8.084;2023-04-19T13:46:56;2.90;;;2.13;;
16407;SDS011;8313;49.894;8.084;2023-04-19T13:49:22;2.27;;;2.07;;
16407;SDS011;8313;49.894;8.084;2023-04-19T13:51:48;2.60;;;2.10;;
16407;SDS011;8313;49.894;8.084;2023-04-19T13:54:14;1.90;;;1.80;;
16407;SDS011;8313;49.894;8.084;2023-04-19T13:56:41;2.80;;;2.30;;
16407;SDS011;8313;49.894;8.084;2023-04-19T13:59:07;4.10;;;2.17;;
16407;SDS011;8313;49.894;8.084;2023-04-19T14:01:33;2.43;;;1.93;;
16407;SDS011;8313;49.894;8.084;2023-04-19T14:03:59;2.43;;;2.03;;
16407;SDS011;8313;49.894;8.084;2023-04-19T14:06:25;3.67;;;2.10;;
16407;SDS011;8313;49.894;8.084;2023-04-19T14:08:51;2.60;;;1.50;;
16407;SDS011;8313;49.894;8.084;2023-04-19T14:11:17;4.20;;;1.80;;
16407;SDS011;8313;49.894;8.084;2023-04-19T14:13:43;1.97;;;1.77;;
16407;SDS011;8313;49.894;8.084;2023-04-19T14:16:09;3.03;;;2.27;;
16407;SDS011;8313;49.894;8.084;2023-04-19T14:18:35;2.50;;;1.60;;
16407;SDS011;8313;49.894;8.084;2023-04-19T14:21:00;2.47;;;1.33;;
16407;SDS011;8313;49.894;8.084;2023-04-19T14:23:26;5.90;;;1.67;;
16407;SDS011;8313;49.894;8.084;2023-04-19T14:25:52;3.70;;;1.40;;
16407;SDS011;8313;49.894;8.084;2023-04-19T14:28:17;3.27;;;1.40;;
16407;SDS011;8313;49.894;8.084;2023-04-19T14:30:43;1.40;;;1.30;;
16407;SDS011;8313;49.894;8.084;2023-04-19T14:33:09;1.57;;;1.47;;
16407;SDS011;8313;49.894;8.084;2023-04-19T14:35:35;1.90;;;1.10;;
16407;SDS011;8313;49.894;8.084;2023-04-19T14:38:00;2.80;;;1.33;;
16407;SDS011;8313;49.894;8.084;2023-04-19T14:40:26;1.97;;;1.77;;
16407;SDS011;8313;49.894;8.084;2023-04-19T14:42:52;1.70;;;1.30;;
16407;SDS011;8313;49.894;8.084;2023-04-19T14:45:18;2.00;;;1.80;;
16407;SDS011;8313;49.894;8.084;2023-04-19T14:47:44;2.60;;;1.50;;
16407;SDS011;8313;49.894;8.084;2023-04-19T14:50:10;1.10;;;1.10;;
16407;SDS011;8313;49.894;8.084;2023-04-19T14:52:35;2.57;;;1.50;;
16407;SDS011;8313;49.894;8.084;2023-04-19T14:55:01;1.80;;;1.50;;
16407;SDS011;8313;49.894;8.084;2023-04-19T14:57:27;1.47;;;1.10;;
16407;SDS011;8313;49.894;8.084;2023-04-19T14:59:53;1.20;;;1.10;;
16407;SDS011;8313;49.894;8.084;2023-04-19T15:02:22;1.70;;;1.40;;
16407;SDS011;8313;49.894;8.084;2023-04-19T15:04:51;6.00;;;1.80;;
16407;SDS011;8313;49.894;8.084;2023-04-19T15:07:17;4.83;;;1.40;;
16407;SDS011;8313;49.894;8.084;2023-04-19T15:09:43;2.70;;;1.53;;
16407;SDS011;8313;49.894;8.084;2023-04-19T15:12:09;1.13;;;1.03;;
16407;SDS011;8313;49.894;8.084;2023-04-19T15:14:34;1.50;;;1.40;;
16407;SDS011;8313;49.894;8.084;2023-04-19T15:17:00;1.43;;;1.30;;
16407;SDS011;8313;49.894;8.084;2023-04-19T15:19:26;1.30;;;1.20;;
16407;SDS011;8313;49.894;8.084;2023-04-19T15:21:54;2.97;;;1.37;;
16407;SDS011;8313;49.894;8.084;2023-04-19T15:24:20;1.60;;;1.20;;
16407;SDS011;8313;49.894;8.084;2023-04-19T15:26:45;1.67;;;1.57;;